createdAt,value
2018-08-28T00:01:05.334Z,99.99
2018-08-28T00:02:06.356Z,99.99
2018-08-28T00:03:05.953Z,99.99
2018-08-28T00:04:05.682Z,99.99
2018-08-28T00:05:05.807Z,99.99
2018-08-28T00:06:05.780Z,99.99
2018-08-28T00:07:05.294Z,99.99
2018-08-28T00:08:05.790Z,99.99
2018-08-28T00:09:26.771Z,99.99
2018-08-28T00:10:27.354Z,99.99
2018-08-28T00:11:26.926Z,99.99
2018-08-28T00:12:27.781Z,99.99
2018-08-28T00:13:48.561Z,99.99
2018-08-28T00:14:49.204Z,99.99
2018-08-28T00:15:49.118Z,99.99
2018-08-28T00:16:48.892Z,99.99
2018-08-28T00:17:49.500Z,99.99
2018-08-28T00:18:49.879Z,99.99
2018-08-28T00:19:49.665Z,99.99
2018-08-28T00:20:49.292Z,99.99
2018-08-28T00:21:49.126Z,99.99
2018-08-28T00:22:48.702Z,99.99
2018-08-28T00:23:49.354Z,99.99
2018-08-28T00:24:49.060Z,99.99
2018-08-28T00:26:10.063Z,99.99
2018-08-28T00:27:10.592Z,99.99
2018-08-28T00:28:10.430Z,99.99
2018-08-28T00:29:11.157Z,99.99
2018-08-28T00:30:10.663Z,99.99
2018-08-28T00:31:10.573Z,99.99
2018-08-28T00:32:10.449Z,99.99
2018-08-28T00:33:10.075Z,99.99
2018-08-28T00:34:10.803Z,99.99
2018-08-28T00:35:10.544Z,99.99
2018-08-28T00:36:54.439Z,99.99
2018-08-28T00:38:16.475Z,99.99
2018-08-28T00:39:17.098Z,99.99
2018-08-28T00:40:38.029Z,99.99
2018-08-28T00:41:38.603Z,99.99
2018-08-28T00:42:38.310Z,99.99
2018-08-28T00:43:38.003Z,99.99
2018-08-28T00:44:38.657Z,99.99
2018-08-28T00:45:38.613Z,99.99
2018-08-28T00:46:38.217Z,99.99
2018-08-28T00:47:38.534Z,99.99
2018-08-28T00:48:38.513Z,99.99
2018-08-28T00:49:38.167Z,99.99
2018-08-28T00:50:38.908Z,99.99
2018-08-28T00:51:38.345Z,99.99
2018-08-28T00:53:20.532Z,99.99
2018-08-28T00:54:21.451Z,99.99
2018-08-28T00:55:21.254Z,99.99
2018-08-28T00:56:20.914Z,99.99
2018-08-28T00:57:20.535Z,99.99
2018-08-28T00:58:21.038Z,99.99
2018-08-28T00:59:20.738Z,99.99
2018-08-28T01:00:43.142Z,99.99
2018-08-28T01:01:43.959Z,99.99
2018-08-28T01:02:43.729Z,99.99
2018-08-28T01:03:43.368Z,99.99
2018-08-28T01:04:43.267Z,99.99
2018-08-28T01:05:43.726Z,99.99
2018-08-28T01:06:43.403Z,99.99
2018-08-28T01:07:43.119Z,99.99
2018-08-28T01:08:43.568Z,99.99
2018-08-28T01:09:43.252Z,99.99
2018-08-28T01:11:04.506Z,99.99
2018-08-28T01:12:05.091Z,99.91
2018-08-28T01:13:04.675Z,99.99
2018-08-28T01:14:04.375Z,99.62
2018-08-28T01:15:05.006Z,99.72
2018-08-28T01:16:04.725Z,99.72
2018-08-28T01:17:25.769Z,99.43
2018-08-28T01:18:26.900Z,99.24
2018-08-28T01:19:47.508Z,99.05
2018-08-28T01:20:48.012Z,99.15
2018-08-28T01:21:47.613Z,98.86
2018-08-28T01:22:48.247Z,98.86
2018-08-28T01:23:48.028Z,98.86
2018-08-28T01:24:47.769Z,98.76
2018-08-28T01:25:48.240Z,98.66
2018-08-28T01:26:48.016Z,98.66
2018-08-28T01:27:47.647Z,98.47
2018-08-28T01:28:48.102Z,98.57
2018-08-28T01:29:47.824Z,98.66
2018-08-28T01:30:48.560Z,98.66
2018-08-28T01:31:48.081Z,98.47
2018-08-28T01:32:47.701Z,98.47
2018-08-28T01:33:48.194Z,98.38
2018-08-28T01:34:47.776Z,98.19
2018-08-28T01:35:48.513Z,98.95
2018-08-28T01:36:48.262Z,98.28
2018-08-28T01:37:47.790Z,98.28
2018-08-28T01:38:48.745Z,98.09
2018-08-28T01:39:48.318Z,98.47
2018-08-28T01:40:47.985Z,98.38
2018-08-28T01:41:47.734Z,98.00
2018-08-28T01:43:09.783Z,98.00
2018-08-28T01:44:10.364Z,97.71
2018-08-28T01:45:32.469Z,97.90
2018-08-28T01:46:33.187Z,97.71
2018-08-28T01:47:32.823Z,97.71
2018-08-28T01:48:33.509Z,97.52
2018-08-28T01:49:33.144Z,97.52
2018-08-28T01:50:32.921Z,97.52
2018-08-28T01:51:53.911Z,97.52
2018-08-28T01:52:54.545Z,97.52
2018-08-28T01:53:54.239Z,97.42
2018-08-28T01:54:54.060Z,97.33
2018-08-28T01:55:54.825Z,97.23
2018-08-28T01:56:54.638Z,96.94
2018-08-28T01:57:54.292Z,96.84
2018-08-28T01:59:05.937Z,96.94
2018-08-28T02:00:02.563Z,96.94
2018-08-28T02:00:54.276Z,96.94
2018-08-28T02:01:54.939Z,96.84
2018-08-28T02:02:54.738Z,96.56
2018-08-28T02:03:54.454Z,96.66
2018-08-28T02:04:54.034Z,96.56
2018-08-28T02:05:54.667Z,96.27
2018-08-28T02:06:54.492Z,96.18
2018-08-28T02:07:54.333Z,95.70
2018-08-28T02:08:54.131Z,95.70
2018-08-28T02:09:54.811Z,95.70
2018-08-28T02:10:54.769Z,95.61
2018-08-28T02:11:54.755Z,95.79
2018-08-28T02:13:16.688Z,95.61
2018-08-28T02:14:16.696Z,95.12
2018-08-28T02:15:16.265Z,95.41
2018-08-28T02:16:38.221Z,94.93
2018-08-28T02:17:39.316Z,95.03
2018-08-28T02:18:38.802Z,94.65
2018-08-28T02:20:00.060Z,94.26
2018-08-28T02:20:59.777Z,94.45
2018-08-28T02:22:00.299Z,94.26
2018-08-28T02:23:00.237Z,94.17
2018-08-28T02:24:00.201Z,93.88
2018-08-28T02:25:42.810Z,93.98
2018-08-28T02:26:43.454Z,93.69
2018-08-28T02:27:43.061Z,93.79
2018-08-28T02:28:42.950Z,93.30
2018-08-28T02:29:43.923Z,93.59
2018-08-28T02:30:43.457Z,93.30
2018-08-28T02:31:43.122Z,93.21
2018-08-28T02:32:43.587Z,93.59
2018-08-28T02:33:43.431Z,93.50
2018-08-28T02:34:43.332Z,93.50
2018-08-28T02:35:43.000Z,93.12
2018-08-28T02:37:26.195Z,92.63
2018-08-28T02:38:26.896Z,92.73
2018-08-28T02:39:26.420Z,92.54
2018-08-28T02:40:26.937Z,92.35
2018-08-28T02:41:26.480Z,92.25
2018-08-28T02:42:27.153Z,92.06
2018-08-28T02:43:26.641Z,91.77
2018-08-28T02:44:26.718Z,91.77
2018-08-28T02:45:26.301Z,91.58
2018-08-28T02:46:27.072Z,91.58
2018-08-28T02:47:26.625Z,91.39
2018-08-28T02:48:26.364Z,90.91
2018-08-28T02:49:27.033Z,90.82
2018-08-28T02:50:26.676Z,90.62
2018-08-28T02:51:26.314Z,90.20
2018-08-28T02:52:27.195Z,89.91
2018-08-28T02:53:27.168Z,89.81
2018-08-28T02:54:26.742Z,89.43
2018-08-28T02:55:26.663Z,89.15
2018-08-28T02:56:26.288Z,89.05
2018-08-28T02:57:48.159Z,88.67
2018-08-28T02:58:48.784Z,88.67
2018-08-28T02:59:48.535Z,88.19
2018-08-28T03:00:49.073Z,88.29
2018-08-28T03:01:48.670Z,87.90
2018-08-28T03:02:48.406Z,87.52
2018-08-28T03:03:49.130Z,87.33
2018-08-28T03:04:48.830Z,86.94
2018-08-28T03:05:48.629Z,86.76
2018-08-28T03:06:48.220Z,86.57
2018-08-28T03:07:49.017Z,86.28
2018-08-28T03:08:48.580Z,85.80
2018-08-28T03:09:48.872Z,85.51
2018-08-28T03:10:48.690Z,85.22
2018-08-28T03:11:48.265Z,84.84
2018-08-28T03:13:10.160Z,84.75
2018-08-28T03:14:10.821Z,84.46
2018-08-28T03:15:10.885Z,84.36
2018-08-28T03:16:10.482Z,84.08
2018-08-28T03:17:10.989Z,83.98
2018-08-28T03:18:10.639Z,83.60
2018-08-28T03:19:11.215Z,83.60
2018-08-28T03:20:11.169Z,83.40
2018-08-28T03:21:10.813Z,83.22
2018-08-28T03:22:10.525Z,83.12
2018-08-28T03:23:11.087Z,82.93
2018-08-28T03:24:32.066Z,82.45
2018-08-28T03:25:32.592Z,82.26
2018-08-28T03:26:32.231Z,82.17
2018-08-28T03:27:32.885Z,81.49
2018-08-28T03:28:32.371Z,81.68
2018-08-28T03:29:33.258Z,81.30
2018-08-28T03:30:33.093Z,81.30
2018-08-28T03:31:32.828Z,81.21
2018-08-28T03:32:32.505Z,81.02
2018-08-28T03:33:33.389Z,80.73
2018-08-28T03:35:15.941Z,80.44
2018-08-28T03:36:16.471Z,80.25
2018-08-28T03:37:16.086Z,80.06
2018-08-28T03:38:16.829Z,80.06
2018-08-28T03:39:16.404Z,79.87
2018-08-28T03:40:16.123Z,79.49
2018-08-28T03:41:16.912Z,79.77
2018-08-28T03:42:16.422Z,79.68
2018-08-28T03:43:16.033Z,79.39
2018-08-28T03:44:16.436Z,79.29
2018-08-28T03:45:16.297Z,79.00
2018-08-28T03:46:16.269Z,79.00
2018-08-28T03:47:16.808Z,78.81
2018-08-28T03:48:16.322Z,78.63
2018-08-28T03:49:15.957Z,78.53
2018-08-28T03:50:16.706Z,77.95
2018-08-28T03:51:16.512Z,77.95
2018-08-28T03:52:16.366Z,77.86
2018-08-28T03:53:16.146Z,77.67
2018-08-28T03:54:16.771Z,77.57
2018-08-28T03:55:16.592Z,77.38
2018-08-28T03:56:16.142Z,77.09
2018-08-28T03:57:16.748Z,77.09
2018-08-28T03:58:16.253Z,77.19
2018-08-28T03:59:16.253Z,77.09
2018-08-28T04:00:16.081Z,76.71
2018-08-28T04:01:16.821Z,76.71
2018-08-28T04:02:17.030Z,76.71
2018-08-28T04:03:38.011Z,76.33
2018-08-28T04:04:39.103Z,76.52
2018-08-28T04:05:37.837Z,76.42
2018-08-28T04:06:39.258Z,76.42
2018-08-28T04:07:37.850Z,76.42
2018-08-28T04:08:38.685Z,76.52
2018-08-28T04:09:38.863Z,76.23
2018-08-28T04:10:38.764Z,76.14
2018-08-28T04:11:38.569Z,76.14
2018-08-28T04:12:38.116Z,76.04
2018-08-28T04:13:38.652Z,75.76
2018-08-28T04:14:38.438Z,75.76
2018-08-28T04:15:38.326Z,75.66
2018-08-28T04:16:38.087Z,75.66
2018-08-28T04:17:38.831Z,75.56
2018-08-28T04:18:38.598Z,75.76
2018-08-28T04:19:38.407Z,75.56
2018-08-28T04:20:38.167Z,75.66
2018-08-28T04:21:37.986Z,75.56
2018-08-28T04:22:38.811Z,75.66
2018-08-28T04:23:38.393Z,75.47
2018-08-28T04:24:38.225Z,75.66
2018-08-28T04:25:38.203Z,75.85
2018-08-28T04:26:38.195Z,75.76
2018-08-28T04:27:37.942Z,75.76
2018-08-28T04:28:38.699Z,75.66
2018-08-28T04:29:38.300Z,75.76
2018-08-28T04:30:38.389Z,75.76
2018-08-28T04:31:38.016Z,75.66
2018-08-28T04:32:38.903Z,75.66
2018-08-28T04:33:38.664Z,75.56
2018-08-28T04:34:38.828Z,75.56
2018-08-28T04:35:38.371Z,75.47
2018-08-28T04:36:38.356Z,75.66
2018-08-28T04:37:37.864Z,75.47
2018-08-28T04:38:39.275Z,75.56
2018-08-28T04:39:37.817Z,75.76
2018-08-28T04:40:38.372Z,75.85
2018-08-28T04:41:38.110Z,75.85
2018-08-28T04:43:00.166Z,75.85
2018-08-28T04:44:00.899Z,76.14
2018-08-28T04:45:00.813Z,76.04
2018-08-28T04:46:00.638Z,76.04
2018-08-28T04:47:22.192Z,76.14
2018-08-28T04:48:44.616Z,76.23
2018-08-28T04:49:45.322Z,76.42
2018-08-28T04:50:45.138Z,75.95
2018-08-28T04:51:45.288Z,75.95
2018-08-28T04:52:45.330Z,75.95
2018-08-28T04:53:45.058Z,76.14
2018-08-28T04:54:44.738Z,76.33
2018-08-28T04:55:44.646Z,76.42
2018-08-28T04:56:45.488Z,76.23
2018-08-28T04:57:45.070Z,76.23
2018-08-28T04:58:44.904Z,76.23
2018-08-28T04:59:45.055Z,76.33
2018-08-28T05:00:44.837Z,76.04
2018-08-28T05:01:45.227Z,76.23
2018-08-28T05:02:45.032Z,76.42
2018-08-28T05:03:44.853Z,76.62
2018-08-28T05:04:44.625Z,76.71
2018-08-28T05:05:45.658Z,77.09
2018-08-28T05:06:44.558Z,76.81
2018-08-28T05:07:45.260Z,76.71
2018-08-28T05:08:45.263Z,76.81
2018-08-28T05:09:45.181Z,77.00
2018-08-28T05:10:44.948Z,76.81
2018-08-28T05:12:06.370Z,77.33
2018-08-28T05:13:49.651Z,77.23
2018-08-28T05:14:50.408Z,78.28
2018-08-28T05:15:50.472Z,78.19
2018-08-28T05:16:51.417Z,77.61
2018-08-28T05:17:49.940Z,78.57
2018-08-28T05:18:49.572Z,78.76
2018-08-28T05:19:50.336Z,78.86
2018-08-28T05:20:50.451Z,78.76
2018-08-28T05:21:50.118Z,79.24
2018-08-28T05:23:56.363Z,79.91
2018-08-28T05:25:18.841Z,79.81
2018-08-28T05:26:19.370Z,80.19
2018-08-28T05:27:40.999Z,80.87
2018-08-28T05:28:41.932Z,80.96
2018-08-28T05:29:42.080Z,81.25
2018-08-28T05:30:41.949Z,81.63
2018-08-28T05:31:41.863Z,81.44
2018-08-28T05:32:41.554Z,81.25
2018-08-28T05:33:41.644Z,81.82
2018-08-28T05:34:41.409Z,81.73
2018-08-28T05:35:41.541Z,81.34
2018-08-28T05:36:41.646Z,82.20
2018-08-28T05:37:41.577Z,82.53
2018-08-28T05:38:41.389Z,82.92
2018-08-28T05:39:41.454Z,83.97
2018-08-28T05:41:24.984Z,84.35
2018-08-28T05:42:25.656Z,84.35
2018-08-28T05:43:47.377Z,84.64
2018-08-28T05:44:47.281Z,85.02
2018-08-28T05:45:47.983Z,85.79
2018-08-28T05:47:09.361Z,85.21
2018-08-28T05:48:31.767Z,85.88
2018-08-28T05:49:32.561Z,85.79
2018-08-28T05:50:32.457Z,85.98
2018-08-28T05:51:32.173Z,85.79
2018-08-28T05:52:32.440Z,87.51
2018-08-28T05:53:32.169Z,87.13
2018-08-28T05:54:32.002Z,86.94
2018-08-28T05:55:33.011Z,87.99
2018-08-28T05:56:32.631Z,88.61
2018-08-28T05:57:32.907Z,89.18
2018-08-28T05:58:32.104Z,88.61
2018-08-28T05:59:32.025Z,89.95
2018-08-28T06:00:32.934Z,89.47
2018-08-28T06:01:32.702Z,89.86
2018-08-28T06:02:32.943Z,91.00
2018-08-28T06:03:32.863Z,91.67
2018-08-28T06:04:33.486Z,90.53
2018-08-28T06:05:32.471Z,91.67
2018-08-28T06:06:33.029Z,91.67
2018-08-28T06:07:32.902Z,91.39
2018-08-28T06:08:32.806Z,92.63
2018-08-28T06:09:54.419Z,93.11
2018-08-28T06:10:54.235Z,92.82
2018-08-28T06:13:01.725Z,92.54
2018-08-28T06:14:23.035Z,92.82
2018-08-28T06:16:06.991Z,93.02
2018-08-28T06:17:08.317Z,94.55
2018-08-28T06:18:07.173Z,93.88
2018-08-28T06:19:29.557Z,94.21
2018-08-28T06:20:30.338Z,95.07
2018-08-28T06:22:14.343Z,95.07
2018-08-28T06:23:14.241Z,95.65
2018-08-28T06:24:14.204Z,96.03
2018-08-28T06:25:14.224Z,95.36
2018-08-28T06:26:14.399Z,96.42
2018-08-28T06:27:35.816Z,96.22
2018-08-28T06:28:58.784Z,96.80
2018-08-28T06:29:59.706Z,97.47
2018-08-28T06:31:00.101Z,97.76
2018-08-28T06:31:58.879Z,99.01
2018-08-28T06:32:58.980Z,98.43
2018-08-28T06:33:59.000Z,98.28
2018-08-28T06:35:42.677Z,99.99
2018-08-28T06:36:43.916Z,99.99
2018-08-28T06:37:42.941Z,99.99
2018-08-28T06:38:42.938Z,99.99
2018-08-28T06:39:42.833Z,99.99
2018-08-28T06:40:42.698Z,99.99
2018-08-28T06:41:43.485Z,99.99
2018-08-28T06:42:43.252Z,99.99
2018-08-28T06:43:43.186Z,99.99
2018-08-28T06:44:42.853Z,99.99
2018-08-28T06:45:42.742Z,99.99
2018-08-28T06:46:42.890Z,99.99
2018-08-28T06:47:42.897Z,99.99
2018-08-28T06:48:42.805Z,99.99
2018-08-28T06:49:42.855Z,99.99
2018-08-28T06:50:43.254Z,99.99
2018-08-28T06:51:42.836Z,99.99
2018-08-28T06:53:05.151Z,99.99
2018-08-28T06:54:06.829Z,99.99
2018-08-28T06:55:06.727Z,99.99
2018-08-28T06:56:27.115Z,99.99
2018-08-28T06:57:27.986Z,99.99
2018-08-28T06:58:27.948Z,99.99
2018-08-28T06:59:27.940Z,99.99
2018-08-28T07:00:27.863Z,99.99
2018-08-28T07:01:27.800Z,99.99
2018-08-28T07:02:27.681Z,99.99
2018-08-28T07:03:27.709Z,99.99
2018-08-28T07:04:28.027Z,99.99
2018-08-28T07:05:27.781Z,99.99
2018-08-28T07:06:49.472Z,99.99
2018-08-28T07:08:33.207Z,99.99
2018-08-28T07:09:34.142Z,99.99
2018-08-28T07:10:34.338Z,99.99
2018-08-28T07:11:55.315Z,99.99
2018-08-28T07:12:55.127Z,99.99
2018-08-28T07:14:17.867Z,99.99
2018-08-28T07:15:17.766Z,99.99
2018-08-28T07:16:39.443Z,99.99
2018-08-28T07:17:39.451Z,99.99
2018-08-28T07:19:03.557Z,99.99
2018-08-28T07:20:03.446Z,99.99
2018-08-28T07:21:03.453Z,99.99
2018-08-28T07:22:04.363Z,99.99
2018-08-28T07:23:05.090Z,99.99
2018-08-28T07:24:04.333Z,99.99
2018-08-28T07:25:04.445Z,99.99
2018-08-28T07:26:04.559Z,99.99
2018-08-28T07:27:03.624Z,99.99
2018-08-28T07:28:03.599Z,99.99
2018-08-28T07:29:03.507Z,99.99
2018-08-28T07:30:04.404Z,99.99
2018-08-28T07:31:05.774Z,99.99
2018-08-28T07:32:03.746Z,99.99
2018-08-28T07:33:03.946Z,99.99
2018-08-28T07:34:03.792Z,99.99
2018-08-28T07:35:03.612Z,99.99
2018-08-28T07:36:03.285Z,99.99
2018-08-28T07:37:04.259Z,99.99
2018-08-28T07:38:25.879Z,99.99
2018-08-28T07:39:26.593Z,99.99
2018-08-28T07:40:26.953Z,99.99
2018-08-28T07:41:25.808Z,99.99
2018-08-28T07:42:26.499Z,99.99
2018-08-28T07:43:26.434Z,99.99
2018-08-28T07:44:26.636Z,99.99
2018-08-28T07:45:26.970Z,99.99
2018-08-28T07:46:25.911Z,99.99
2018-08-28T07:47:27.133Z,99.99
2018-08-28T07:48:26.557Z,99.99
2018-08-28T07:49:26.431Z,99.99
2018-08-28T07:50:26.221Z,99.99
2018-08-28T07:51:26.311Z,99.99
2018-08-28T07:52:49.503Z,99.99
2018-08-28T07:53:49.999Z,99.99
2018-08-28T07:54:48.935Z,99.99
2018-08-28T07:56:11.301Z,99.99
2018-08-28T07:57:11.241Z,99.99
2018-08-28T07:58:11.223Z,99.99
2018-08-28T07:59:13.644Z,99.99
2018-08-28T08:00:11.429Z,99.99
2018-08-28T08:01:11.436Z,99.99
2018-08-28T08:02:11.523Z,99.99
2018-08-28T08:03:11.604Z,99.99
2018-08-28T08:04:11.858Z,99.99
2018-08-28T08:05:11.996Z,99.99
2018-08-28T08:06:12.023Z,99.99
2018-08-28T08:07:12.704Z,99.99
2018-08-28T08:08:33.221Z,99.99
2018-08-28T08:09:34.261Z,99.99
2018-08-28T08:10:34.185Z,99.99
2018-08-28T08:11:34.080Z,99.99
2018-08-28T08:12:33.816Z,99.99
2018-08-28T08:13:34.016Z,99.99
2018-08-28T08:14:33.977Z,99.99
2018-08-28T08:15:34.103Z,99.99
2018-08-28T08:16:55.399Z,99.99
2018-08-28T08:17:56.032Z,99.99
2018-08-28T08:18:55.731Z,98.73
2018-08-28T08:19:55.588Z,99.60
2018-08-28T08:20:56.587Z,97.72
2018-08-28T08:22:17.854Z,96.94
2018-08-28T08:23:17.915Z,94.24
2018-08-28T08:24:17.661Z,95.11
2018-08-28T08:25:18.699Z,95.59
2018-08-28T08:26:40.020Z,96.17
2018-08-28T08:27:40.793Z,96.08
2018-08-28T08:28:40.813Z,95.45
2018-08-28T08:29:40.530Z,94.48
2018-08-28T08:30:40.686Z,93.46
2018-08-28T08:31:40.371Z,90.70
2018-08-28T08:32:40.109Z,88.95
2018-08-28T08:33:40.775Z,85.36
2018-08-28T08:34:40.600Z,81.73
2018-08-28T08:35:40.390Z,82.12
2018-08-28T08:36:40.051Z,81.83
2018-08-28T08:37:39.994Z,81.73
2018-08-28T08:38:40.975Z,81.93
2018-08-28T08:39:41.068Z,80.77
2018-08-28T08:41:01.676Z,81.30
2018-08-28T08:42:02.557Z,82.91
2018-08-28T08:43:02.433Z,82.23
2018-08-28T08:44:02.165Z,82.72
2018-08-28T08:45:02.345Z,84.08
2018-08-28T08:46:02.068Z,83.30
2018-08-28T08:47:01.877Z,83.30
2018-08-28T08:48:01.728Z,83.69
2018-08-28T08:49:01.539Z,82.86
2018-08-28T08:50:02.363Z,83.05
2018-08-28T08:51:02.164Z,81.21
2018-08-28T08:52:01.772Z,81.40
2018-08-28T08:53:02.851Z,81.37
2018-08-28T08:54:01.658Z,83.20
2018-08-28T08:55:24.178Z,82.14
2018-08-28T08:56:25.116Z,82.57
2018-08-28T08:57:25.000Z,80.24
2018-08-28T08:58:46.555Z,79.76
2018-08-28T08:59:47.221Z,79.76
2018-08-28T09:00:47.058Z,80.54
2018-08-28T09:01:46.778Z,80.24
2018-08-28T09:03:08.450Z,80.24
2018-08-28T09:04:09.077Z,77.86
2018-08-28T09:05:09.003Z,78.54
2018-08-28T09:06:08.980Z,77.80
2018-08-28T09:07:09.357Z,77.22
2018-08-28T09:08:34.939Z,76.87
2018-08-28T09:09:33.503Z,76.68
2018-08-28T09:10:57.565Z,75.03
2018-08-28T09:11:58.526Z,74.45
2018-08-28T09:12:57.890Z,74.16
2018-08-28T09:13:57.346Z,73.19
2018-08-28T09:14:58.324Z,73.67
2018-08-28T09:15:58.068Z,72.89
2018-08-28T09:17:20.239Z,74.02
2018-08-28T09:18:20.838Z,74.90
2018-08-28T09:19:20.431Z,74.80
2018-08-28T09:20:20.196Z,75.42
2018-08-28T09:21:20.270Z,75.61
2018-08-28T09:22:42.325Z,75.13
2018-08-28T09:23:42.342Z,75.71
2018-08-28T09:24:42.343Z,75.51
2018-08-28T09:26:05.564Z,71.44
2018-08-28T09:27:07.043Z,72.80
2018-08-28T09:28:06.484Z,72.86
2018-08-28T09:29:05.570Z,73.28
2018-08-28T09:30:07.023Z,74.16
2018-08-28T09:31:28.103Z,73.48
2018-08-28T09:32:29.102Z,72.89
2018-08-28T09:33:28.088Z,72.41
2018-08-28T09:34:29.843Z,72.25
2018-08-28T09:35:27.903Z,72.16
2018-08-28T09:37:13.848Z,71.45
2018-08-28T09:38:13.202Z,69.12
2018-08-28T09:39:14.524Z,67.50
2018-08-28T09:40:35.396Z,67.60
2018-08-28T09:41:35.459Z,67.99
2018-08-28T09:42:36.428Z,68.38
2018-08-28T09:43:35.667Z,67.63
2018-08-28T09:44:35.722Z,67.44
2018-08-28T09:45:36.615Z,65.85
2018-08-28T09:46:35.573Z,66.37
2018-08-28T09:47:35.551Z,65.17
2018-08-28T09:48:36.215Z,64.88
2018-08-28T09:49:37.863Z,64.49
2018-08-28T09:50:36.384Z,64.65
2018-08-28T09:51:37.285Z,65.72
2018-08-28T09:52:35.270Z,67.08
2018-08-28T09:53:56.929Z,66.79
2018-08-28T09:54:57.960Z,65.72
2018-08-28T09:56:22.697Z,67.28
2018-08-28T09:57:22.141Z,67.66
2018-08-28T09:58:22.280Z,66.11
2018-08-28T09:59:47.039Z,66.37
2018-08-28T10:00:49.408Z,67.57
2018-08-28T10:01:47.562Z,66.69
2018-08-28T10:02:48.897Z,66.40
2018-08-28T10:03:47.212Z,66.21
2018-08-28T10:04:48.135Z,64.36
2018-08-28T10:05:47.444Z,64.26
2018-08-28T10:06:48.277Z,65.05
2018-08-28T10:07:55.904Z,64.46
2018-08-28T10:08:47.270Z,63.65
2018-08-28T10:09:48.135Z,65.59
2018-08-28T10:10:47.345Z,66.95
2018-08-28T10:12:09.830Z,67.11
2018-08-28T10:13:09.715Z,65.47
2018-08-28T10:14:33.050Z,67.50
2018-08-28T10:15:54.478Z,69.79
2018-08-28T10:16:54.498Z,70.37
2018-08-28T10:17:56.390Z,70.96
2018-08-28T10:18:55.079Z,71.25
2018-08-28T10:19:55.326Z,71.25
2018-08-28T10:20:55.264Z,70.96
2018-08-28T10:22:16.570Z,67.08
2018-08-28T10:23:17.499Z,64.75
2018-08-28T10:24:17.441Z,65.53
2018-08-28T10:25:17.660Z,67.08
2018-08-28T10:26:17.828Z,66.69
2018-08-28T10:27:40.401Z,67.37
2018-08-28T10:28:40.687Z,65.20
2018-08-28T10:29:40.736Z,64.43
2018-08-28T10:31:24.484Z,64.04
2018-08-28T10:32:25.272Z,63.27
2018-08-28T10:33:25.061Z,65.66
2018-08-28T10:34:25.088Z,64.69
2018-08-28T10:35:25.363Z,66.92
2018-08-28T10:36:25.528Z,64.11
2018-08-28T10:37:24.613Z,64.30
2018-08-28T10:38:46.646Z,65.56
2018-08-28T10:39:46.650Z,65.50
2018-08-28T10:41:33.513Z,66.08
2018-08-28T10:42:33.737Z,66.66
2018-08-28T10:43:33.638Z,66.72
2018-08-28T10:44:55.406Z,67.88
2018-08-28T10:45:55.327Z,69.24
2018-08-28T10:46:55.556Z,70.79
2018-08-28T10:48:39.885Z,68.56
2018-08-28T10:50:02.085Z,68.66
2018-08-28T10:51:02.375Z,67.50
2018-08-28T10:52:01.616Z,66.63
2018-08-28T10:53:01.792Z,67.69
2018-08-28T10:54:01.944Z,66.72
2018-08-28T10:55:02.009Z,67.02
2018-08-28T10:56:01.983Z,65.17
2018-08-28T10:57:02.066Z,65.47
2018-08-28T10:58:47.897Z,67.30
2018-08-28T10:59:47.879Z,67.60
2018-08-28T11:00:47.885Z,66.53
2018-08-28T11:02:20.629Z,64.89
2018-08-28T11:03:20.705Z,64.20
2018-08-28T11:04:20.783Z,66.24
2018-08-28T11:05:20.851Z,67.69
2018-08-28T11:06:20.693Z,69.24
2018-08-28T11:07:20.988Z,68.37
2018-08-28T11:08:21.010Z,69.31
2018-08-28T11:09:22.380Z,68.33
2018-08-28T11:10:21.290Z,67.08
2018-08-28T11:11:21.446Z,66.69
2018-08-28T11:12:20.918Z,66.88
2018-08-28T11:13:21.401Z,65.69
2018-08-28T11:14:21.898Z,65.69
2018-08-28T11:15:20.868Z,66.75
2018-08-28T11:16:20.780Z,66.95
2018-08-28T11:17:21.303Z,68.01
2018-08-28T11:18:21.482Z,68.11
2018-08-28T11:19:21.664Z,68.15
2018-08-28T11:20:21.781Z,68.91
2018-08-28T11:21:20.819Z,67.27
2018-08-28T11:22:20.769Z,66.50
2018-08-28T11:23:21.214Z,66.98
2018-08-28T11:24:43.317Z,67.37
2018-08-28T11:25:43.251Z,68.37
2018-08-28T11:26:43.997Z,67.60
2018-08-28T11:27:43.368Z,65.27
2018-08-28T11:28:44.719Z,65.95
2018-08-28T11:29:44.483Z,65.85
2018-08-28T11:30:43.792Z,66.43
2018-08-28T11:31:44.385Z,67.69
2018-08-28T11:32:43.301Z,67.30
2018-08-28T11:33:43.083Z,66.34
2018-08-28T11:34:42.992Z,64.98
2018-08-28T11:35:43.081Z,65.66
2018-08-28T11:36:43.425Z,65.27
2018-08-28T11:37:43.196Z,65.08
2018-08-28T11:39:05.504Z,65.08
2018-08-28T11:40:27.432Z,65.75
2018-08-28T11:41:27.432Z,64.89
2018-08-28T11:42:27.657Z,65.27
2018-08-28T11:43:28.411Z,65.85
2018-08-28T11:44:28.200Z,65.37
2018-08-28T11:45:28.243Z,65.40
2018-08-28T11:46:28.150Z,64.72
2018-08-28T11:47:27.815Z,64.43
2018-08-28T11:48:28.013Z,63.95
2018-08-28T11:49:28.111Z,63.46
2018-08-28T11:50:28.115Z,64.04
2018-08-28T11:51:28.112Z,63.46
2018-08-28T11:52:28.097Z,63.46
2018-08-28T11:53:28.133Z,63.95
2018-08-28T11:54:50.350Z,63.59
2018-08-28T11:55:50.905Z,63.01
2018-08-28T11:56:50.267Z,62.72
2018-08-28T11:57:52.273Z,63.43
2018-08-28T11:58:50.764Z,62.16
2018-08-28T11:59:53.596Z,63.13
2018-08-28T12:01:12.702Z,63.33
2018-08-28T12:02:13.003Z,62.19
2018-08-28T12:03:13.506Z,61.74
2018-08-28T12:04:14.262Z,62.04
2018-08-28T12:05:13.624Z,60.71
2018-08-28T12:06:13.422Z,59.74
2018-08-28T12:07:13.563Z,59.89
2018-08-28T12:08:35.101Z,57.84
2018-08-28T12:09:58.209Z,55.75
2018-08-28T12:10:59.323Z,54.73
2018-08-28T12:11:58.582Z,54.14
2018-08-28T12:13:21.515Z,53.53
2018-08-28T12:14:22.069Z,53.41
2018-08-28T12:15:22.209Z,53.21
2018-08-28T12:16:21.299Z,53.09
2018-08-28T12:17:34.151Z,53.65
2018-08-28T12:18:22.442Z,53.55
2018-08-28T12:19:23.077Z,54.50
2018-08-28T12:20:21.463Z,55.15
2018-08-28T12:21:21.649Z,55.35
2018-08-28T12:23:08.624Z,58.14
2018-08-28T12:24:07.498Z,56.00
2018-08-28T12:25:07.428Z,55.98
2018-08-28T12:26:15.893Z,57.14
2018-08-28T12:27:07.404Z,57.23
2018-08-28T12:28:06.626Z,57.11
2018-08-28T12:29:31.472Z,57.86
2018-08-28T12:30:28.939Z,59.70
2018-08-28T12:31:31.285Z,60.58
2018-08-28T12:32:28.815Z,59.70
2018-08-28T12:33:29.037Z,60.25
2018-08-28T12:35:18.165Z,60.55
2018-08-28T12:36:21.622Z,59.58
2018-08-28T12:37:18.281Z,59.97
2018-08-28T12:38:42.749Z,61.35
2018-08-28T12:39:55.888Z,59.41
2018-08-28T12:41:29.344Z,59.97
2018-08-28T12:42:27.434Z,60.25
2018-08-28T12:43:27.426Z,60.55
2018-08-28T12:44:27.738Z,61.32
2018-08-28T12:45:26.582Z,60.94
2018-08-28T12:46:27.910Z,61.42
2018-08-28T12:49:02.745Z,62.59
2018-08-28T12:50:23.297Z,61.91
2018-08-28T12:51:25.011Z,61.55
2018-08-28T12:52:24.084Z,60.09
2018-08-28T12:53:24.332Z,60.09
2018-08-28T12:54:23.449Z,60.38
2018-08-28T12:55:23.957Z,60.38
2018-08-28T12:56:24.174Z,61.25
2018-08-28T12:57:24.216Z,60.68
2018-08-28T12:58:23.152Z,59.51
2018-08-28T12:59:24.122Z,59.41
2018-08-28T13:00:24.154Z,59.22
2018-08-28T13:01:24.143Z,59.41
2018-08-28T13:02:24.341Z,59.90
2018-08-28T13:03:23.876Z,60.77
2018-08-28T13:04:24.174Z,60.58
2018-08-28T13:05:23.924Z,61.35
2018-08-28T13:06:23.903Z,62.52
2018-08-28T13:07:45.485Z,60.48
2018-08-28T13:08:47.400Z,60.09
2018-08-28T13:09:46.286Z,60.09
2018-08-28T13:10:46.054Z,59.90
2018-08-28T13:11:46.291Z,60.58
2018-08-28T13:12:46.264Z,60.12
2018-08-28T13:13:46.113Z,59.83
2018-08-28T13:14:46.193Z,60.31
2018-08-28T13:15:46.080Z,60.51
2018-08-28T13:17:29.508Z,61.97
2018-08-28T13:18:29.541Z,61.35
2018-08-28T13:19:30.130Z,61.16
2018-08-28T13:20:29.936Z,60.38
2018-08-28T13:21:29.869Z,61.45
2018-08-28T13:22:51.558Z,61.81
2018-08-28T13:23:51.666Z,61.52
2018-08-28T13:24:51.603Z,61.22
2018-08-28T13:26:13.956Z,61.88
2018-08-28T13:27:36.399Z,62.68
2018-08-28T13:28:37.286Z,62.01
2018-08-28T13:29:37.173Z,62.01
2018-08-28T13:30:37.381Z,61.71
2018-08-28T13:31:37.269Z,61.52
2018-08-28T13:32:37.214Z,61.52
2018-08-28T13:33:37.184Z,62.29
2018-08-28T13:34:37.137Z,62.78
2018-08-28T13:35:59.048Z,62.23
2018-08-28T13:37:00.050Z,59.41
2018-08-28T13:38:00.090Z,59.61
2018-08-28T13:39:21.770Z,60.28
2018-08-28T13:40:22.749Z,59.92
2018-08-28T13:41:21.884Z,60.02
2018-08-28T13:42:22.090Z,60.02
2018-08-28T13:43:45.170Z,60.31
2018-08-28T13:44:43.890Z,58.47